Time;durP1;ratioP1;P1;durP2;ratioP2;P2;SDS_P1;SDS_P2;PMS_P1;PMS_P2;Temp;Humidity;BMP_temperature;BMP_pressure;BME280_temperature;BME280_humidity;BME280_pressure;Samples;Min_cycle;Max_cycle;Signal;HPM_P1;HPM_P2
2021/09/25 00:00:13;;;;;;;6.30;3.35;;;13.70;94.60;;;;;;4974052;28;20477;-76
2021/09/25 00:02:39;;;;;;;5.78;3.30;;;13.70;94.00;;;;;;4972872;28;20034;-76
2021/09/25 00:05:05;;;;;;;10.00;3.75;;;13.60;94.30;;;;;;4974108;28;20027;-76
2021/09/25 00:07:31;;;;;;;8.43;3.88;;;13.50;94.50;;;;;;4972882;28;20459;-76
2021/09/25 00:09:57;;;;;;;5.82;3.60;;;13.50;95.10;;;;;;4975177;28;20154;-76
2021/09/25 00:12:23;;;;;;;9.07;3.67;;;13.50;94.60;;;;;;4977796;28;20158;-76
2021/09/25 00:14:49;;;;;;;5.75;3.45;;;13.40;94.90;;;;;;4977762;28;20031;-76
2021/09/25 00:17:15;;;;;;;6.18;3.28;;;13.40;94.70;;;;;;4977765;28;20110;-77
2021/09/25 00:19:41;;;;;;;4.18;3.00;;;13.30;94.60;;;;;;4977818;28;20030;-76
2021/09/25 00:22:08;;;;;;;5.88;3.10;;;13.30;93.80;;;;;;4976132;28;20078;-76
2021/09/25 00:24:33;;;;;;;4.50;3.05;;;13.30;94.00;;;;;;4977596;28;20030;-77
2021/09/25 00:26:59;;;;;;;5.20;3.15;;;13.30;94.10;;;;;;4977611;28;20082;-76
2021/09/25 00:29:25;;;;;;;5.68;3.45;;;13.30;93.70;;;;;;4977478;28;20456;-77
2021/09/25 00:31:51;;;;;;;4.75;3.00;;;13.20;93.50;;;;;;4977485;28;20481;-76
2021/09/25 00:34:17;;;;;;;7.00;3.42;;;13.20;93.50;;;;;;4977446;28;20026;-76
2021/09/25 00:36:42;;;;;;;4.72;3.00;;;13.20;93.60;;;;;;4977620;28;20027;-76
2021/09/25 00:39:09;;;;;;;6.93;4.13;;;13.20;93.70;;;;;;4977334;28;20085;-77
2021/09/25 00:41:34;;;;;;;6.10;3.85;;;13.30;93.70;;;;;;4977208;28;20027;-76
2021/09/25 00:44:00;;;;;;;4.63;3.17;;;13.40;93.60;;;;;;4977791;28;20019;-76
2021/09/25 00:46:26;;;;;;;5.55;3.63;;;13.50;93.20;;;;;;4977506;28;20517;-76
2021/09/25 00:48:52;;;;;;;10.50;5.13;;;13.50;93.70;;;;;;4977446;28;20060;-76
2021/09/25 00:51:18;;;;;;;4.97;3.10;;;13.40;94.40;;;;;;4977121;28;20508;-76
2021/09/25 00:53:44;;;;;;;6.50;4.05;;;13.30;94.20;;;;;;4977067;28;20023;-76
2021/09/25 00:56:11;;;;;;;5.63;3.30;;;13.30;93.80;;;;;;4977298;28;20030;-76
2021/09/25 00:58:38;;;;;;;9.65;3.67;;;13.20;93.80;;;;;;4977249;28;20482;-76
2021/09/25 01:01:05;;;;;;;14.38;4.60;;;13.10;93.80;;;;;;4976870;28;20034;-77
2021/09/25 01:03:31;;;;;;;7.40;4.32;;;13.10;94.10;;;;;;4977152;28;20023;-76
2021/09/25 01:05:56;;;;;;;12.55;4.55;;;13.20;94.20;;;;;;4977124;28;20495;-76
2021/09/25 01:08:23;;;;;;;18.95;4.82;;;13.20;94.60;;;;;;4976827;28;20063;-77
2021/09/25 01:10:50;;;;;;;17.40;4.88;;;13.00;94.90;;;;;;4977282;28;20027;-76
2021/09/25 01:13:16;;;;;;;16.70;5.03;;;13.00;95.00;;;;;;4976766;28;20042;-76
2021/09/25 01:15:42;;;;;;;7.15;4.30;;;13.00;94.90;;;;;;4976908;28;20037;-76
2021/09/25 01:18:08;;;;;;;6.07;3.80;;;13.00;94.70;;;;;;4976608;28;20039;-76
2021/09/25 01:20:33;;;;;;;7.53;4.22;;;13.10;94.80;;;;;;4976180;28;20030;-76
2021/09/25 01:22:59;;;;;;;5.35;3.55;;;13.20;94.40;;;;;;4975432;28;20501;-77
2021/09/25 01:25:25;;;;;;;9.55;4.07;;;13.10;94.00;;;;;;4976538;28;20059;-76
2021/09/25 01:27:52;;;;;;;6.68;3.95;;;13.10;94.30;;;;;;4976776;28;20033;-76
2021/09/25 01:30:20;;;;;;;6.65;4.68;;;13.20;93.90;;;;;;4976953;28;20433;-76
2021/09/25 01:32:47;;;;;;;9.80;4.20;;;13.20;94.20;;;;;;4976380;28;20101;-76
2021/09/25 01:35:14;;;;;;;6.53;4.20;;;13.10;93.90;;;;;;4976290;28;20038;-76
2021/09/25 01:37:40;;;;;;;10.88;3.70;;;13.00;94.40;;;;;;4976314;28;20508;-77
2021/09/25 01:40:08;;;;;;;6.30;4.25;;;13.00;94.40;;;;;;4976506;28;20054;-77
2021/09/25 01:42:34;;;;;;;19.60;5.28;;;12.90;94.70;;;;;;4974883;28;20114;-77
2021/09/25 01:45:00;;;;;;;9.48;4.82;;;12.70;95.20;;;;;;4976156;28;20022;-77
2021/09/25 01:47:25;;;;;;;10.77;4.68;;;12.70;95.60;;;;;;4976335;28;20033;-77
2021/09/25 01:49:51;;;;;;;7.10;4.32;;;12.80;95.50;;;;;;4976000;28;20053;-76
2021/09/25 01:52:18;;;;;;;19.55;4.97;;;13.00;95.30;;;;;;4975999;28;20073;-76
2021/09/25 01:54:44;;;;;;;40.35;5.93;;;13.00;95.20;;;;;;4974731;28;20077;-76
2021/09/25 01:57:10;;;;;;;5.47;3.50;;;12.80;95.80;;;;;;4975963;28;20031;-76
2021/09/25 01:59:36;;;;;;;5.80;3.85;;;12.60;96.10;;;;;;4975905;28;20026;-76
2021/09/25 02:02:02;;;;;;;7.57;4.55;;;12.90;95.50;;;;;;4975833;28;20039;-77
2021/09/25 02:04:28;;;;;;;18.42;4.43;;;12.80;95.60;;;;;;4974520;28;20015;-76
2021/09/25 02:06:53;;;;;;;6.93;4.00;;;12.90;95.40;;;;;;4975729;28;20461;-76
2021/09/25 02:09:19;;;;;;;6.28;3.65;;;13.00;95.20;;;;;;4975890;28;20015;-76
2021/09/25 02:11:45;;;;;;;6.78;3.78;;;12.90;94.70;;;;;;4975944;28;20146;-76
2021/09/25 02:14:10;;;;;;;7.93;4.32;;;12.90;94.60;;;;;;4974365;28;20022;-76
2021/09/25 02:16:36;;;;;;;10.63;3.90;;;12.80;94.80;;;;;;4975598;28;20022;-76
2021/09/25 02:19:02;;;;;;;9.55;4.35;;;12.80;94.80;;;;;;4974279;28;20101;-76
2021/09/25 02:21:28;;;;;;;6.97;3.92;;;12.70;94.90;;;;;;4975185;28;20031;-76
2021/09/25 02:23:54;;;;;;;9.68;5.00;;;12.80;94.90;;;;;;4975667;28;20035;-76
2021/09/25 02:26:19;;;;;;;9.68;4.30;;;12.90;95.10;;;;;;4975639;28;20395;-76
2021/09/25 02:28:45;;;;;;;5.85;3.90;;;12.60;95.30;;;;;;4975588;28;20385;-76
2021/09/25 02:31:10;;;;;;;6.20;3.85;;;12.60;94.70;;;;;;4973991;28;20089;-76
2021/09/25 02:33:37;;;;;;;7.15;3.70;;;12.50;94.90;;;;;;4974993;28;20081;-76
2021/09/25 02:36:02;;;;;;;5.28;3.40;;;12.60;94.50;;;;;;4975238;28;20397;-76
2021/09/25 02:38:28;;;;;;;6.50;3.60;;;12.70;94.30;;;;;;4975120;28;20019;-77
2021/09/25 02:40:54;;;;;;;7.13;4.43;;;12.70;93.50;;;;;;4973849;28;20073;-76
2021/09/25 02:43:20;;;;;;;7.18;4.13;;;12.60;94.50;;;;;;4975085;28;20030;-76
2021/09/25 02:45:45;;;;;;;11.73;4.22;;;12.40;95.20;;;;;;4975028;28;20027;-76
2021/09/25 02:48:11;;;;;;;5.85;3.80;;;12.50;94.80;;;;;;4975221;28;20027;-76
2021/09/25 02:50:37;;;;;;;7.32;3.97;;;12.30;95.20;;;;;;4974895;28;20022;-76
2021/09/25 02:53:03;;;;;;;8.57;4.32;;;12.40;95.10;;;;;;4974921;28;20034;-76
2021/09/25 02:55:31;;;;;;;10.63;4.25;;;12.50;94.90;;;;;;4974861;28;20033;-76
2021/09/25 02:57:57;;;;;;;5.88;3.72;;;12.40;94.70;;;;;;4975376;28;20018;-75
2021/09/25 03:00:23;;;;;;;8.82;4.43;;;12.50;94.60;;;;;;4974786;28;20031;-76
2021/09/25 03:02:49;;;;;;;5.60;3.75;;;12.70;94.10;;;;;;4974796;28;20019;-76
2021/09/25 03:05:15;;;;;;;6.53;4.45;;;12.60;93.90;;;;;;4974729;28;20077;-76
2021/09/25 03:07:41;;;;;;;5.93;3.80;;;12.50;94.30;;;;;;4974944;28;20023;-76
2021/09/25 03:10:08;;;;;;;9.70;4.65;;;12.40;94.60;;;;;;4974594;28;20034;-77
2021/09/25 03:12:34;;;;;;;10.25;4.07;;;12.30;94.60;;;;;;4975129;28;20015;-76
2021/09/25 03:15:00;;;;;;;7.85;4.80;;;12.30;94.70;;;;;;4974882;28;20496;-76
2021/09/25 03:17:26;;;;;;;10.57;4.72;;;12.30;94.70;;;;;;4974574;28;20440;-76
2021/09/25 03:19:52;;;;;;;9.50;4.10;;;12.30;94.60;;;;;;4974460;28;20035;-76
2021/09/25 03:22:18;;;;;;;7.20;3.95;;;12.20;94.70;;;;;;4974494;28;20046;-76
2021/09/25 03:24:44;;;;;;;7.95;4.35;;;12.30;94.60;;;;;;4974787;28;20504;-76
2021/09/25 03:27:10;;;;;;;6.78;3.90;;;12.20;94.40;;;;;;4974488;28;20101;-76
2021/09/25 03:29:36;;;;;;;6.50;4.10;;;12.20;94.50;;;;;;4974379;28;20609;-76
2021/09/25 03:32:02;;;;;;;9.95;4.90;;;12.20;94.50;;;;;;4973124;28;20117;-76
2021/09/25 03:34:28;;;;;;;10.50;4.63;;;12.30;94.50;;;;;;4974643;28;20097;-76
2021/09/25 03:36:53;;;;;;;6.55;3.95;;;12.20;94.80;;;;;;4974643;28;20158;-76
2021/09/25 03:39:19;;;;;;;11.85;4.47;;;12.20;94.80;;;;;;4974348;28;20078;-76
2021/09/25 03:41:45;;;;;;;9.80;4.43;;;12.20;94.70;;;;;;4974323;28;20519;-76
2021/09/25 03:44:10;;;;;;;7.03;4.07;;;12.00;95.20;;;;;;4974277;28;20374;-76
2021/09/25 03:46:37;;;;;;;7.82;4.15;;;12.00;95.00;;;;;;4976966;28;20036;-76
2021/09/25 03:49:03;;;;;;;7.38;4.20;;;12.00;94.80;;;;;;4978282;28;20070;-76
2021/09/25 03:51:28;;;;;;;12.05;4.22;;;12.00;94.70;;;;;;4978162;28;20422;-76
2021/09/25 03:53:54;;;;;;;7.88;4.43;;;12.10;94.70;;;;;;4978175;28;20062;-77
2021/09/25 03:56:20;;;;;;;7.57;4.45;;;12.00;95.00;;;;;;4978168;28;20390;-76
2021/09/25 03:58:46;;;;;;;5.63;3.67;;;12.20;94.90;;;;;;4978064;28;20042;-76
2021/09/25 04:01:12;;;;;;;7.97;4.63;;;12.20;94.60;;;;;;4978352;28;20022;-77
2021/09/25 04:03:39;;;;;;;6.70;4.05;;;12.20;94.60;;;;;;4976737;28;20085;-77
2021/09/25 04:06:04;;;;;;;12.45;4.90;;;12.10;94.70;;;;;;4977959;28;20023;-77
2021/09/25 04:08:31;;;;;;;6.65;4.07;;;12.20;94.80;;;;;;4978207;28;20027;-76
2021/09/25 04:10:57;;;;;;;11.18;5.13;;;12.10;95.20;;;;;;4977794;28;20085;-75
2021/09/25 04:13:23;;;;;;;8.60;4.95;;;12.20;95.20;;;;;;4978071;28;20026;-76
2021/09/25 04:15:48;;;;;;;6.53;4.40;;;12.20;95.30;;;;;;4977783;28;20015;-76
2021/09/25 04:18:14;;;;;;;11.43;4.53;;;12.10;95.80;;;;;;4977728;28;20561;-76
2021/09/25 04:20:40;;;;;;;8.10;4.80;;;12.20;95.40;;;;;;4977605;28;20069;-75
2021/09/25 04:23:06;;;;;;;8.15;4.85;;;12.30;95.10;;;;;;4977554;28;20131;-76
2021/09/25 04:25:32;;;;;;;12.20;4.93;;;12.10;95.40;;;;;;4977633;28;20027;-76
2021/09/25 04:28:05;;;;;;;7.20;4.07;;;12.20;95.30;;;;;;4977832;28;20030;-76
2021/09/25 04:30:36;;;;;;;9.70;5.15;;;12.00;95.50;;;;;;4977735;28;20520;-76
2021/09/25 04:33:01;;;;;;;21.50;5.25;;;12.10;95.50;;;;;;4975996;28;20027;-76
2021/09/25 04:35:27;;;;;;;18.92;5.32;;;11.90;96.00;;;;;;4977409;28;20027;-76
2021/09/25 04:37:56;;;;;;;20.85;5.25;;;12.00;96.10;;;;;;4977397;28;20022;-76
2021/09/25 04:40:22;;;;;;;8.60;4.32;;;11.90;96.20;;;;;;4977335;28;20027;-76
2021/09/25 04:42:48;;;;;;;7.07;4.53;;;11.80;96.70;;;;;;4977301;28;20110;-77
2021/09/25 04:45:14;;;;;;;11.05;5.00;;;11.70;96.70;;;;;;4977221;28;20117;-76
2021/09/25 04:47:41;;;;;;;13.07;5.25;;;11.70;96.70;;;;;;4977242;28;20114;-76
2021/09/25 04:50:07;;;;;;;10.88;4.75;;;11.70;96.30;;;;;;4977370;28;20050;-75
2021/09/25 04:52:33;;;;;;;11.32;4.05;;;11.70;96.30;;;;;;4977148;28;20026;-76
2021/09/25 04:54:58;;;;;;;8.48;3.63;;;11.60;95.80;;;;;;4977090;28;20478;-77
2021/09/25 04:57:24;;;;;;;7.30;4.00;;;11.60;95.20;;;;;;4976877;28;20477;-76
2021/09/25 04:59:50;;;;;;;5.22;3.65;;;11.60;95.40;;;;;;4977527;28;20023;-76
2021/09/25 05:02:15;;;;;;;7.32;4.07;;;11.50;95.40;;;;;;4976952;28;20106;-76
2021/09/25 05:04:41;;;;;;;5.32;3.90;;;11.60;95.40;;;;;;4976886;28;20441;-76
2021/09/25 05:07:07;;;;;;;7.07;4.13;;;11.70;95.10;;;;;;4976869;28;20031;-77
2021/09/25 05:09:32;;;;;;;7.47;4.70;;;11.70;94.90;;;;;;4977019;28;20037;-77
2021/09/25 05:11:58;;;;;;;7.88;4.00;;;11.60;95.00;;;;;;4977050;28;20027;-75
2021/09/25 05:14:24;;;;;;;6.35;4.22;;;11.60;95.10;;;;;;4976779;28;20386;-76
2021/09/25 05:16:50;;;;;;;5.25;3.75;;;11.50;95.10;;;;;;4976726;28;20393;-75
2021/09/25 05:19:15;;;;;;;5.68;3.90;;;11.60;95.00;;;;;;4976673;28;20023;-76
2021/09/25 05:21:41;;;;;;;7.03;3.95;;;11.50;94.60;;;;;;4975084;28;20118;-76
2021/09/25 05:24:07;;;;;;;8.82;4.45;;;11.50;94.70;;;;;;4976862;28;20027;-76
2021/09/25 05:26:35;;;;;;;5.70;3.83;;;11.30;94.80;;;;;;4976794;28;20481;-76
2021/09/25 05:29:02;;;;;;;6.80;4.05;;;11.40;94.70;;;;;;4976760;28;20507;-76
2021/09/25 05:31:27;;;;;;;7.65;4.30;;;11.50;94.50;;;;;;4976325;28;20026;-76
2021/09/25 05:33:53;;;;;;;6.22;3.95;;;11.40;94.90;;;;;;4976358;28;20029;-77
2021/09/25 05:36:19;;;;;;;7.95;4.15;;;11.40;94.90;;;;;;4976623;28;20030;-76
2021/09/25 05:38:45;;;;;;;8.57;4.47;;;11.50;94.60;;;;;;4976299;28;20026;-76
2021/09/25 05:41:10;;;;;;;8.77;4.10;;;11.50;94.80;;;;;;4976576;28;20389;-76
2021/09/25 05:43:36;;;;;;;6.95;4.30;;;11.40;95.10;;;;;;4976260;28;20370;-76
2021/09/25 05:46:02;;;;;;;8.90;4.20;;;11.40;95.20;;;;;;4976691;28;20035;-76
2021/09/25 05:48:29;;;;;;;6.20;3.72;;;11.30;95.00;;;;;;4976146;28;20019;-76
2021/09/25 05:50:55;;;;;;;6.40;4.32;;;11.40;95.00;;;;;;4976000;28;20031;-77
2021/09/25 05:53:20;;;;;;;7.03;4.13;;;11.50;95.10;;;;;;4976041;28;20507;-76
2021/09/25 05:55:46;;;;;;;8.32;4.07;;;11.50;94.60;;;;;;4976251;28;20034;-77
2021/09/25 05:58:11;;;;;;;7.45;4.00;;;11.30;94.40;;;;;;4976177;28;20493;-76
2021/09/25 06:00:37;;;;;;;6.15;4.00;;;11.20;94.50;;;;;;4976138;28;20097;-76
2021/09/25 06:03:03;;;;;;;6.88;4.10;;;11.30;94.30;;;;;;4976372;28;20107;-76
2021/09/25 06:05:31;;;;;;;7.13;3.97;;;11.30;94.40;;;;;;4975816;28;20030;-76
2021/09/25 06:07:57;;;;;;;7.80;4.30;;;11.40;94.10;;;;;;4975167;28;20033;-76
2021/09/25 06:10:23;;;;;;;6.30;4.07;;;11.30;94.20;;;;;;4975650;28;20392;-76
2021/09/25 06:12:49;;;;;;;6.78;3.85;;;11.40;94.00;;;;;;4975664;28;20025;-76
2021/09/25 06:15:14;;;;;;;6.30;3.83;;;11.40;94.10;;;;;;4975885;28;20470;-75
2021/09/25 06:17:42;;;;;;;7.53;3.95;;;11.30;94.00;;;;;;4975559;28;20019;-76
2021/09/25 06:20:08;;;;;;;6.97;4.47;;;11.20;94.40;;;;;;4975642;28;20035;-76
2021/09/25 06:22:34;;;;;;;6.68;3.90;;;11.20;94.40;;;;;;4975286;28;20457;-76
2021/09/25 06:25:00;;;;;;;6.15;4.13;;;11.30;94.40;;;;;;4975709;28;20035;-76
2021/09/25 06:27:25;;;;;;;8.25;4.43;;;11.30;94.80;;;;;;4974134;28;20571;-76
2021/09/25 06:29:51;;;;;;;9.25;4.20;;;11.30;94.80;;;;;;4975757;28;20041;-76
2021/09/25 06:32:17;;;;;;;6.97;4.20;;;11.30;94.70;;;;;;4975522;28;20023;-76
2021/09/25 06:34:42;;;;;;;12.35;4.93;;;11.30;94.40;;;;;;4975503;28;20027;-76
2021/09/25 06:37:08;;;;;;;8.40;4.30;;;11.30;94.80;;;;;;4975270;28;20362;-76
2021/09/25 06:39:34;;;;;;;7.68;4.95;;;11.40;94.70;;;;;;4975393;28;20034;-77
2021/09/25 06:42:00;;;;;;;9.85;5.25;;;11.50;94.90;;;;;;4975166;28;20022;-76
2021/09/25 06:44:25;;;;;;;7.68;4.57;;;11.50;95.00;;;;;;4975316;28;20098;-76
2021/09/25 06:46:51;;;;;;;7.72;4.30;;;11.60;95.00;;;;;;4975035;28;20416;-76
2021/09/25 06:49:17;;;;;;;8.30;4.85;;;11.80;94.60;;;;;;4975231;28;20497;-76
2021/09/25 06:51:42;;;;;;;8.50;5.45;;;11.80;94.40;;;;;;4975164;28;20481;-76
2021/09/25 06:54:08;;;;;;;9.02;5.47;;;11.90;94.10;;;;;;4974910;28;20481;-76
2021/09/25 06:56:33;;;;;;;10.45;5.28;;;11.80;94.60;;;;;;4975170;28;20031;-76
2021/09/25 06:58:59;;;;;;;9.27;5.90;;;11.70;94.90;;;;;;4974863;28;20054;-76
2021/09/25 07:01:25;;;;;;;8.20;4.78;;;11.80;94.70;;;;;;4974847;28;20461;-76
2021/09/25 07:03:50;;;;;;;8.80;5.53;;;12.00;94.20;;;;;;4974828;28;20035;-76
2021/09/25 07:06:16;;;;;;;9.18;4.93;;;11.90;94.70;;;;;;4974766;28;20030;-76
2021/09/25 07:08:42;;;;;;;8.93;4.80;;;11.90;95.00;;;;;;4974998;28;20042;-76
2021/09/25 07:11:07;;;;;;;7.05;4.60;;;12.00;95.20;;;;;;4974642;28;20105;-75
2021/09/25 07:13:33;;;;;;;8.15;5.47;;;12.00;95.10;;;;;;4974674;28;20065;-76
2021/09/25 07:15:59;;;;;;;10.93;5.40;;;12.10;95.00;;;;;;4974624;28;20039;-76
2021/09/25 07:18:24;;;;;;;7.10;4.80;;;12.20;95.10;;;;;;4974466;28;20101;-76
2021/09/25 07:20:51;;;;;;;7.03;4.97;;;12.10;95.50;;;;;;4973740;28;20070;-76
2021/09/25 07:23:17;;;;;;;7.55;5.32;;;12.20;95.80;;;;;;4974409;28;20193;-76
2021/09/25 07:25:43;;;;;;;7.63;5.25;;;12.30;95.70;;;;;;4974490;28;20430;-76
2021/09/25 07:28:09;;;;;;;9.70;5.53;;;12.40;95.70;;;;;;4974476;28;20027;-76
2021/09/25 07:30:37;;;;;;;8.07;5.05;;;12.40;96.20;;;;;;4974669;28;20365;-76
2021/09/25 07:33:04;;;;;;;7.28;4.82;;;12.50;96.30;;;;;;4974685;28;20532;-76
2021/09/25 07:35:31;;;;;;;9.20;4.80;;;12.70;96.10;;;;;;4974400;28;20030;-76
2021/09/25 07:37:56;;;;;;;7.78;5.30;;;12.90;95.90;;;;;;4974381;28;20478;-76
2021/09/25 07:40:22;;;;;;;8.23;5.80;;;13.00;95.70;;;;;;4974305;28;20085;-76
2021/09/25 07:42:48;;;;;;;10.25;6.00;;;12.90;95.80;;;;;;4973097;28;20105;-75
2021/09/25 07:45:13;;;;;;;10.75;5.50;;;12.90;96.20;;;;;;4974565;28;20552;-76
2021/09/25 07:47:39;;;;;;;10.57;6.60;;;13.00;96.20;;;;;;4974529;28;20039;-76
2021/09/25 07:50:07;;;;;;;8.90;6.15;;;13.10;96.40;;;;;;4974171;28;20058;-76
2021/09/25 07:52:32;;;;;;;9.35;5.20;;;13.10;96.90;;;;;;4974193;28;20023;-76
2021/09/25 07:54:59;;;;;;;8.98;6.00;;;13.20;96.70;;;;;;4974276;28;20050;-76
2021/09/25 07:57:26;;;;;;;8.75;5.78;;;13.20;96.50;;;;;;4974174;28;20027;-77
2021/09/25 07:59:52;;;;;;;10.23;5.95;;;13.40;96.60;;;;;;4974063;28;20035;-75
2021/09/25 08:02:17;;;;;;;8.98;6.32;;;13.50;96.40;;;;;;4974092;28;20512;-76
2021/09/25 08:04:43;;;;;;;9.13;5.95;;;13.60;96.00;;;;;;4974017;28;20489;-76
2021/09/25 08:07:09;;;;;;;9.32;6.53;;;13.60;96.20;;;;;;4974038;28;20027;-76
2021/09/25 08:09:34;;;;;;;11.52;7.75;;;13.60;96.30;;;;;;4972703;28;20066;-76
2021/09/25 08:12:00;;;;;;;11.85;6.90;;;13.70;96.50;;;;;;4974060;28;20029;-76
2021/09/25 08:14:25;;;;;;;10.27;6.72;;;14.00;96.00;;;;;;4974018;28;20031;-76
2021/09/25 08:16:51;;;;;;;8.80;6.57;;;14.20;95.40;;;;;;4974255;28;20389;-77
2021/09/25 08:19:17;;;;;;;10.60;7.50;;;14.50;95.20;;;;;;4973885;28;20055;-76
2021/09/25 08:21:44;;;;;;;11.75;7.00;;;14.80;94.40;;;;;;4973468;28;20031;-76
2021/09/25 08:24:09;;;;;;;12.18;8.02;;;15.10;93.90;;;;;;4972025;28;20039;-76
2021/09/25 08:26:35;;;;;;;11.50;7.65;;;15.50;93.50;;;;;;4973730;28;20464;-76
2021/09/25 08:29:01;;;;;;;13.02;9.00;;;15.60;93.20;;;;;;4973603;28;20053;-77
2021/09/25 08:31:27;;;;;;;12.68;8.10;;;15.70;93.00;;;;;;4975661;28;20474;-76
2021/09/25 08:33:53;;;;;;;10.23;7.90;;;15.70;93.50;;;;;;4975950;28;20095;-76
2021/09/25 08:36:18;;;;;;;12.68;9.00;;;15.70;93.30;;;;;;4977672;28;20061;-78
2021/09/25 08:38:44;;;;;;;12.63;8.68;;;15.70;93.70;;;;;;4977620;28;20027;-77
2021/09/25 08:41:10;;;;;;;12.32;7.80;;;15.60;94.40;;;;;;4977238;28;20555;-83
2021/09/25 08:43:35;;;;;;;11.35;8.13;;;15.60;95.00;;;;;;4977328;28;20030;-82
2021/09/25 08:46:05;;;;;;;10.63;8.13;;;15.60;94.40;;;;;;4977488;28;20030;-81
2021/09/25 08:48:32;;;;;;;11.23;8.13;;;15.70;94.70;;;;;;4977194;28;20035;-84
2021/09/25 08:50:59;;;;;;;13.00;9.05;;;15.80;94.60;;;;;;4977095;28;20023;-82
2021/09/25 08:53:25;;;;;;;11.00;8.50;;;16.00;94.60;;;;;;4977415;28;20485;-80
2021/09/25 08:55:51;;;;;;;11.80;8.02;;;16.10;94.50;;;;;;4977037;28;20027;-79
2021/09/25 08:58:17;;;;;;;10.90;8.13;;;16.20;94.70;;;;;;4977025;28;20101;-78
2021/09/25 09:00:46;;;;;;;10.15;8.55;;;16.30;94.20;;;;;;4976990;28;20544;-77
2021/09/25 09:03:29;;;;;;;12.25;8.88;;;16.50;94.50;;;;;;4976977;28;20026;-76
2021/09/25 09:06:12;;;;;;;11.95;9.05;;;16.60;94.10;;;;;;4977185;28;20034;-80
2021/09/25 09:08:41;;;;;;;14.05;10.18;;;16.80;94.30;;;;;;4977440;28;20408;-77
2021/09/25 09:11:07;;;;;;;13.48;9.50;;;16.70;94.30;;;;;;4977009;28;20023;-78
2021/09/25 09:13:38;;;;;;;14.30;11.02;;;16.70;94.70;;;;;;4975466;28;20507;-81
2021/09/25 09:16:05;;;;;;;14.93;9.95;;;16.80;95.00;;;;;;4976678;28;20018;-76
2021/09/25 09:18:35;;;;;;;16.20;10.88;;;16.70;95.10;;;;;;4977201;28;20104;-82
2021/09/25 09:21:22;;;;;;;13.70;9.93;;;16.90;95.20;;;;;;4975264;28;20404;-76
2021/09/25 09:23:49;;;;;;;12.35;10.60;;;17.60;94.20;;;;;;4976106;28;20051;-81
2021/09/25 09:26:21;;;;;;;13.82;11.05;;;17.80;93.40;;;;;;4976413;28;20030;-77
2021/09/25 09:28:48;;;;;;;13.98;11.07;;;17.70;94.20;;;;;;4976802;28;20101;-78
2021/09/25 09:31:15;;;;;;;12.43;9.88;;;17.80;94.10;;;;;;4974917;28;20057;-80
2021/09/25 09:33:48;;;;;;;15.63;11.15;;;17.70;94.60;;;;;;4976274;28;20069;-75
2021/09/25 09:36:33;;;;;;;17.58;12.32;;;17.70;94.90;;;;;;4976158;28;20090;-77
2021/09/25 09:39:00;;;;;;;17.90;12.80;;;17.60;95.40;;;;;;4976527;28;20532;-76
2021/09/25 09:41:28;;;;;;;16.60;12.35;;;17.40;95.50;;;;;;4975985;28;20023;-79
2021/09/25 09:43:56;;;;;;;24.33;15.93;;;17.50;96.50;;;;;;4975135;28;20063;-77
2021/09/25 09:46:37;;;;;;;16.25;12.32;;;17.50;96.40;;;;;;4976332;28;20130;-77
2021/09/25 09:49:04;;;;;;;16.88;13.10;;;17.90;95.70;;;;;;4976488;28;20031;-79
2021/09/25 09:51:38;;;;;;;14.85;12.27;;;18.00;94.90;;;;;;4975755;28;20033;-78
2021/09/25 09:54:14;;;;;;;19.40;12.27;;;18.10;94.90;;;;;;4976161;28;20018;-77
2021/09/25 09:56:41;;;;;;;15.77;12.90;;;18.10;95.20;;;;;;4975900;28;20489;-75
2021/09/25 09:59:08;;;;;;;16.20;12.75;;;17.90;96.10;;;;;;4975781;28;20018;-75
2021/09/25 10:01:35;;;;;;;17.08;13.23;;;17.80;96.20;;;;;;4975850;28;20034;-74
2021/09/25 10:04:01;;;;;;;16.17;13.32;;;17.70;95.70;;;;;;4975897;28;20481;-75
2021/09/25 10:06:28;;;;;;;16.70;13.07;;;17.60;96.20;;;;;;4975805;28;20027;-75
2021/09/25 10:08:54;;;;;;;15.68;12.80;;;17.60;96.50;;;;;;4976057;28;20026;-75
2021/09/25 10:11:22;;;;;;;15.57;12.60;;;17.50;96.40;;;;;;4975918;28;20027;-74
2021/09/25 10:13:51;;;;;;;16.02;12.75;;;17.50;97.00;;;;;;4975720;28;20026;-75
2021/09/25 10:16:17;;;;;;;17.45;12.52;;;17.40;97.10;;;;;;4975889;28;20027;-75
2021/09/25 10:18:43;;;;;;;16.10;12.88;;;17.50;97.60;;;;;;4975549;28;20027;-75
2021/09/25 10:21:12;;;;;;;18.33;12.90;;;17.50;97.30;;;;;;4975460;28;20501;-75
2021/09/25 10:24:08;;;;;;;16.35;11.95;;;17.60;97.40;;;;;;4975070;28;20529;-75
2021/09/25 10:26:43;;;;;;;18.27;12.88;;;17.70;97.20;;;;;;4975678;28;20031;-74
2021/09/25 10:29:09;;;;;;;15.38;12.48;;;17.70;97.00;;;;;;4975985;28;20485;-75
2021/09/25 10:31:34;;;;;;;13.95;11.43;;;17.60;97.40;;;;;;4975261;28;20046;-75
2021/09/25 10:34:07;;;;;;;14.93;11.27;;;17.60;97.60;;;;;;4975284;28;20030;-75
2021/09/25 10:36:43;;;;;;;17.23;12.07;;;17.60;98.00;;;;;;4975799;28;20409;-74
2021/09/25 10:39:36;;;;;;;15.23;11.95;;;17.70;97.20;;;;;;4975221;28;20119;-75
2021/09/25 10:42:10;;;;;;;16.13;11.95;;;17.70;97.70;;;;;;4972923;28;20426;-75
2021/09/25 10:44:42;;;;;;;18.40;11.50;;;17.70;97.10;;;;;;4975707;28;20381;-75
2021/09/25 10:47:15;;;;;;;16.70;12.15;;;17.80;96.80;;;;;;4975097;28;20507;-75
2021/09/25 10:49:43;;;;;;;15.60;12.00;;;17.90;96.90;;;;;;4975036;28;20027;-75
2021/09/25 10:52:10;;;;;;;16.00;12.32;;;18.00;96.40;;;;;;4975229;28;20029;-75
2021/09/25 10:54:36;;;;;;;16.05;11.85;;;18.10;96.50;;;;;;4975336;28;20055;-75
2021/09/25 10:57:07;;;;;;;16.02;12.05;;;18.10;96.50;;;;;;4975214;28;20101;-74
2021/09/25 10:59:33;;;;;;;16.05;12.48;;;18.10;96.30;;;;;;4974896;28;20401;-75
2021/09/25 11:01:58;;;;;;;16.35;11.85;;;18.10;96.40;;;;;;4975041;28;20031;-75
2021/09/25 11:04:24;;;;;;;13.77;10.80;;;18.10;96.60;;;;;;4974787;28;20050;-75
2021/09/25 11:06:52;;;;;;;15.68;12.00;;;18.10;97.00;;;;;;4974984;28;20449;-74
2021/09/25 11:09:32;;;;;;;16.38;11.25;;;18.20;96.40;;;;;;4973403;28;20396;-75
2021/09/25 11:12:05;;;;;;;16.10;11.63;;;18.10;96.90;;;;;;4974925;28;20556;-74
2021/09/25 11:14:41;;;;;;;14.88;11.90;;;18.20;97.10;;;;;;4974724;28;20019;-75
2021/09/25 11:17:19;;;;;;;15.13;11.65;;;18.20;97.30;;;;;;4974625;28;20027;-75
2021/09/25 11:19:52;;;;;;;17.02;12.68;;;18.10;97.10;;;;;;4974988;28;20019;-75
2021/09/25 11:22:23;;;;;;;14.13;11.65;;;18.10;97.40;;;;;;4974335;28;20162;-75
2021/09/25 11:25:04;;;;;;;19.00;12.30;;;18.20;97.40;;;;;;4974819;28;20469;-75
2021/09/25 11:27:37;;;;;;;19.05;12.85;;;18.20;97.20;;;;;;4974791;28;20026;-74
2021/09/25 11:30:08;;;;;;;17.10;11.25;;;18.20;97.40;;;;;;4974639;28;20362;-75
2021/09/25 11:32:52;;;;;;;16.80;12.77;;;18.20;96.90;;;;;;4974459;28;20023;-75
2021/09/25 11:35:24;;;;;;;16.60;11.60;;;18.30;97.00;;;;;;4972848;28;20035;-75
2021/09/25 11:38:00;;;;;;;15.00;11.70;;;18.40;97.40;;;;;;4974888;28;20094;-75
2021/09/25 11:40:29;;;;;;;16.73;11.40;;;18.40;97.10;;;;;;4974602;28;20117;-75
2021/09/25 11:43:07;;;;;;;14.82;12.05;;;18.30;97.20;;;;;;4974342;28;20025;-75
2021/09/25 11:45:42;;;;;;;15.68;11.40;;;18.40;97.10;;;;;;4972964;28;20034;-74
2021/09/25 11:48:09;;;;;;;16.83;13.13;;;18.30;96.90;;;;;;4974550;28;20034;-75
2021/09/25 11:50:38;;;;;;;17.33;13.00;;;18.20;97.30;;;;;;4974197;28;20555;-75
2021/09/25 11:53:08;;;;;;;16.42;11.93;;;18.30;97.50;;;;;;4974629;28;20023;-74
2021/09/25 11:55:36;;;;;;;17.17;12.23;;;18.30;97.20;;;;;;4974542;28;20045;-74
2021/09/25 11:58:09;;;;;;;14.57;11.43;;;18.30;98.40;;;;;;4974205;28;20015;-75
2021/09/25 12:00:35;;;;;;;15.70;11.23;;;18.30;97.90;;;;;;4974056;28;20409;-75
2021/09/25 12:03:09;;;;;;;14.93;11.50;;;18.40;98.10;;;;;;4974121;28;20019;-75
2021/09/25 12:05:42;;;;;;;15.10;11.00;;;18.40;98.20;;;;;;4974665;28;20037;-75
2021/09/25 12:08:08;;;;;;;15.82;12.05;;;18.40;97.80;;;;;;4978559;28;20033;-75
2021/09/25 12:10:36;;;;;;;15.52;11.80;;;18.40;97.90;;;;;;4978066;28;20031;-75
2021/09/25 12:13:08;;;;;;;16.13;11.48;;;18.40;97.50;;;;;;4978131;28;20034;-75
2021/09/25 12:15:38;;;;;;;17.35;12.65;;;18.50;98.00;;;;;;4978404;28;20085;-74
2021/09/25 12:18:20;;;;;;;17.90;11.50;;;18.50;97.50;;;;;;4977815;28;20014;-75
2021/09/25 12:21:03;;;;;;;18.08;11.98;;;18.50;98.00;;;;;;4977999;28;20278;-75
2021/09/25 12:23:42;;;;;;;17.08;12.13;;;18.60;97.50;;;;;;4977426;28;20047;-74
2021/09/25 12:26:10;;;;;;;15.43;11.52;;;18.60;97.60;;;;;;4977845;28;20046;-75
2021/09/25 12:28:48;;;;;;;16.55;11.70;;;18.60;97.70;;;;;;4977530;28;20366;-74
2021/09/25 12:31:28;;;;;;;15.98;11.63;;;18.70;97.50;;;;;;4977484;28;20022;-74
2021/09/25 12:33:59;;;;;;;14.60;11.05;;;18.70;97.50;;;;;;4978058;28;20023;-74
2021/09/25 12:36:33;;;;;;;14.25;10.88;;;18.80;97.50;;;;;;4977772;28;20054;-75
2021/09/25 12:39:16;;;;;;;13.63;10.65;;;18.90;97.30;;;;;;4977344;28;20477;-75
2021/09/25 12:41:57;;;;;;;15.90;11.00;;;19.00;97.50;;;;;;4977416;28;20031;-75